Time;durP1;ratioP1;P1;durP2;ratioP2;P2;SDS_P1;SDS_P2;PMS_P1;PMS_P2;Temp;Humidity;BMP_temperature;BMP_pressure;BME280_temperature;BME280_humidity;BME280_pressure;Samples;Min_cycle;Max_cycle;Signal;HPM_P1;HPM_P2
2024/03/09 00:00:35;;;;;;;21.83;14.70;;;;;;;4.68;70.20;94445.84;5023627;28;20186;-80
2024/03/09 00:03:00;;;;;;;23.93;14.97;;;;;;;4.68;70.33;94463.84;5025602;28;20189;-78
2024/03/09 00:05:26;;;;;;;23.57;14.40;;;;;;;4.73;70.50;94458.25;5042625;28;20203;-78
2024/03/09 00:07:55;;;;;;;21.13;13.73;;;;;;;4.68;70.71;94473.28;5036809;28;20206;-79
2024/03/09 00:10:26;;;;;;;21.93;14.63;;;;;;;4.68;70.43;94468.97;5012046;28;20194;-80
2024/03/09 00:12:52;;;;;;;22.93;15.53;;;;;;;4.64;70.68;94459.09;5023958;28;20623;-80
2024/03/09 00:15:19;;;;;;;22.27;14.73;;;;;;;4.69;70.65;94468.03;5010691;28;20206;-81
2024/03/09 00:17:47;;;;;;;22.60;14.33;;;;;;;4.72;70.47;94459.22;5014474;28;20193;-80
2024/03/09 00:20:25;;;;;;;20.43;14.33;;;;;;;4.73;70.41;94455.69;5021814;28;20202;-80
2024/03/09 00:22:52;;;;;;;22.03;14.97;;;;;;;4.72;70.25;94456.63;5012614;28;20229;-80
2024/03/09 00:25:20;;;;;;;21.67;14.37;;;;;;;4.67;70.21;94454.47;5002511;28;20234;-80
2024/03/09 00:27:46;;;;;;;24.13;15.93;;;;;;;4.59;70.45;94451.78;5005127;28;20218;-80
2024/03/09 00:30:19;;;;;;;24.43;16.03;;;;;;;4.58;70.81;94452.72;5017922;28;20190;-79
2024/03/09 00:32:45;;;;;;;22.63;14.67;;;;;;;4.54;70.82;94456.53;5016087;28;20567;-78
2024/03/09 00:35:10;;;;;;;23.27;14.33;;;;;;;4.50;70.90;94457.75;5003649;28;20206;-79
2024/03/09 00:37:36;;;;;;;23.67;14.17;;;;;;;4.45;71.45;94454.78;5018455;28;20205;-80
2024/03/09 00:40:04;;;;;;;20.63;14.43;;;;;;;4.43;72.09;94457.50;5021129;28;20684;-79
2024/03/09 00:42:32;;;;;;;20.67;14.30;;;;;;;4.42;72.16;94455.88;5027670;28;20185;-79
2024/03/09 00:45:01;;;;;;;22.33;14.53;;;;;;;4.35;72.50;94459.13;5013376;28;20203;-80
2024/03/09 00:47:26;;;;;;;22.73;14.50;;;;;;;4.37;72.59;94460.59;5004628;28;20252;-80
2024/03/09 00:49:51;;;;;;;23.70;14.00;;;;;;;4.35;72.87;94466.84;5019509;28;20642;-78
2024/03/09 00:52:19;;;;;;;23.07;14.80;;;;;;;4.37;72.85;94472.66;5005268;28;20613;-79
2024/03/09 00:54:44;;;;;;;24.13;15.17;;;;;;;4.32;73.25;94473.03;5016076;28;20241;-79
2024/03/09 00:57:10;;;;;;;23.00;14.70;;;;;;;4.33;73.32;94473.84;5023780;28;20210;-79
2024/03/09 00:59:35;;;;;;;21.63;14.27;;;;;;;4.14;74.35;94472.91;5012421;28;20195;-78
2024/03/09 01:02:01;;;;;;;22.43;14.83;;;;;;;4.28;74.13;94463.19;5005758;28;20199;-79
2024/03/09 01:04:30;;;;;;;22.80;14.73;;;;;;;4.44;73.24;94453.97;5020751;28;20237;-80
2024/03/09 01:06:57;;;;;;;25.40;14.77;;;;;;;4.45;73.37;94454.78;5010875;28;20277;-79
2024/03/09 01:09:23;;;;;;;24.37;14.37;;;;;;;4.46;73.30;94446.13;4999402;28;20282;-80
2024/03/09 01:11:49;;;;;;;21.53;14.17;;;;;;;4.54;73.10;94443.69;5019673;28;20183;-80
2024/03/09 01:14:15;;;;;;;23.80;14.50;;;;;;;4.50;73.44;94439.75;5018368;28;20205;-79
2024/03/09 01:16:40;;;;;;;21.47;14.00;;;;;;;4.44;74.14;94428.28;5017608;28;20217;-80
2024/03/09 01:19:05;;;;;;;20.93;14.00;;;;;;;4.54;73.73;94428.25;5014632;28;20191;-79
2024/03/09 01:21:31;;;;;;;22.50;14.37;;;;;;;4.51;73.22;94428.53;5021400;28;20208;-79
2024/03/09 01:23:56;;;;;;;24.97;15.03;;;;;;;4.51;73.57;94431.13;5011198;28;20185;-79
2024/03/09 01:26:22;;;;;;;21.23;13.73;;;;;;;4.49;74.01;94422.69;5004617;28;20221;-79
2024/03/09 01:28:48;;;;;;;24.17;14.20;;;;;;;4.52;73.74;94415.53;5017420;28;20185;-79
2024/03/09 01:31:13;;;;;;;21.60;13.77;;;;;;;4.53;73.86;94416.34;5012857;28;20182;-80
2024/03/09 01:33:39;;;;;;;21.27;13.20;;;;;;;4.57;73.75;94420.25;5011423;28;20715;-80
2024/03/09 01:36:05;;;;;;;24.87;14.50;;;;;;;4.57;73.94;94406.59;5016929;28;20240;-79
2024/03/09 01:38:30;;;;;;;23.93;13.80;;;;;;;4.53;74.06;94400.94;5005947;28;20222;-79
2024/03/09 01:40:55;;;;;;;21.80;14.50;;;;;;;4.60;74.44;94401.19;5018034;28;20195;-80
2024/03/09 01:43:21;;;;;;;23.90;15.63;;;;;;;4.59;74.49;94395.22;5010785;28;20242;-80
2024/03/09 01:45:50;;;;;;;21.80;15.37;;;;;;;4.72;74.00;94394.91;5014213;28;20267;-79
2024/03/09 01:48:21;;;;;;;23.93;15.73;;;;;;;4.74;74.01;94393.81;5019634;28;20699;-80
2024/03/09 01:50:48;;;;;;;22.47;14.83;;;;;;;4.86;73.24;94391.06;5019802;28;20202;-80
2024/03/09 01:53:14;;;;;;;22.73;14.63;;;;;;;4.94;73.00;94391.19;5014790;28;20202;-80
2024/03/09 01:55:41;;;;;;;26.03;16.40;;;;;;;5.07;72.54;94389.91;5018835;28;20198;-79
2024/03/09 01:58:07;;;;;;;23.27;15.33;;;;;;;5.11;71.74;94387.84;5012930;28;20194;-80
2024/03/09 02:00:37;;;;;;;24.30;15.83;;;;;;;5.13;71.83;94385.97;5018886;28;20264;-78
2024/03/09 02:03:08;;;;;;;22.47;14.97;;;;;;;5.19;72.08;94387.13;5011105;28;20190;-79
2024/03/09 02:05:36;;;;;;;22.47;15.60;;;;;;;5.17;71.83;94387.28;5003158;28;20205;-79
2024/03/09 02:08:05;;;;;;;22.67;14.57;;;;;;;5.17;71.78;94384.72;5013963;28;20282;-79
2024/03/09 02:10:31;;;;;;;25.17;14.90;;;;;;;5.15;72.59;94386.63;5025943;28;20217;-80
2024/03/09 02:12:57;;;;;;;21.63;13.97;;;;;;;5.18;71.91;94391.47;5013760;28;20191;-79
2024/03/09 02:15:27;;;;;;;21.30;13.07;;;;;;;5.20;72.75;94392.13;5011835;28;20571;-78
2024/03/09 02:17:52;;;;;;;20.33;14.63;;;;;;;5.23;72.75;94386.72;5015838;28;20246;-79
2024/03/09 02:20:17;;;;;;;20.73;14.17;;;;;;;5.15;72.37;94386.63;4998404;28;20293;-80
2024/03/09 02:22:46;;;;;;;24.87;15.20;;;;;;;5.04;72.91;94386.81;5016245;28;20254;-80
2024/03/09 02:25:11;;;;;;;26.63;16.13;;;;;;;5.05;73.22;94385.88;5017834;28;20207;-79
2024/03/09 02:27:37;;;;;;;22.63;16.60;;;;;;;5.26;72.12;94383.84;5016976;28;20276;-80
2024/03/09 02:30:02;;;;;;;25.53;16.63;;;;;;;5.25;72.18;94382.25;5008479;28;20190;-80
2024/03/09 02:32:30;;;;;;;28.23;16.80;;;;;;;5.18;72.53;94386.34;5017490;28;20241;-79
2024/03/09 02:34:55;;;;;;;23.23;15.27;;;;;;;5.36;72.21;94382.03;5013296;28;20217;-79
2024/03/09 02:37:20;;;;;;;20.87;15.00;;;;;;;5.30;73.01;94379.22;5006919;28;20190;-80
2024/03/09 02:39:46;;;;;;;22.63;13.97;;;;;;;5.36;73.09;94387.19;5016072;28;20249;-79
2024/03/09 02:42:11;;;;;;;21.30;13.53;;;;;;;5.50;72.74;94385.09;5003106;28;20186;-80
2024/03/09 02:44:40;;;;;;;20.30;12.90;;;;;;;5.56;72.67;94394.78;4998058;28;20244;-78
2024/03/09 02:47:05;;;;;;;18.93;11.83;;;;;;;5.57;72.42;94388.72;5008845;28;20595;-78
2024/03/09 02:49:31;;;;;;;20.07;12.53;;;;;;;5.46;72.71;94388.88;5010394;28;20272;-79
2024/03/09 02:51:56;;;;;;;17.93;11.97;;;;;;;5.60;72.52;94394.38;5017554;28;20190;-79
2024/03/09 02:54:23;;;;;;;17.17;10.67;;;;;;;5.85;71.93;94387.69;5016766;28;20727;-80
2024/03/09 02:56:49;;;;;;;16.10;9.03;;;;;;;5.85;72.32;94384.31;5021288;28;20230;-79
2024/03/09 02:59:15;;;;;;;9.97;7.00;;;;;;;5.88;73.07;94391.72;5017848;28;20181;-79
2024/03/09 03:01:41;;;;;;;8.57;5.87;;;;;;;6.09;73.86;94376.81;5006229;28;20187;-78
2024/03/09 03:04:07;;;;;;;7.93;5.00;;;;;;;6.17;74.47;94376.88;5003868;28;20194;-79
2024/03/09 03:06:32;;;;;;;7.60;4.23;;;;;;;6.35;74.73;94376.84;5000168;28;20238;-80
2024/03/09 03:09:02;;;;;;;5.47;4.20;;;;;;;6.43;75.12;94369.16;5017750;28;20277;-79
2024/03/09 03:11:32;;;;;;;6.03;4.17;;;;;;;6.35;77.00;94371.69;5025226;28;20186;-78
2024/03/09 03:13:59;;;;;;;7.13;5.03;;;;;;;6.40;77.59;94360.94;5016490;28;20588;-79
2024/03/09 03:16:33;;;;;;;6.10;4.50;;;;;;;6.32;78.24;94361.69;4999524;28;20708;-80
2024/03/09 03:19:03;;;;;;;6.27;4.23;;;;;;;6.28;79.19;94357.81;5013629;28;20248;-78
2024/03/09 03:21:28;;;;;;;2.43;2.00;;;;;;;6.16;80.99;94351.25;5006641;28;20195;-79
2024/03/09 03:23:54;;;;;;;2.97;1.83;;;;;;;6.45;80.19;94345.81;5015633;28;20249;-80
2024/03/09 03:26:20;;;;;;;3.77;2.63;;;;;;;6.56;79.58;94344.75;5002850;28;20211;-79
2024/03/09 03:28:47;;;;;;;4.33;2.83;;;;;;;6.53;80.53;94341.50;5002626;28;20301;-79
2024/03/09 03:31:16;;;;;;;4.97;3.20;;;;;;;6.56;81.02;94331.88;5009239;28;20653;-80
2024/03/09 03:33:42;;;;;;;4.37;2.67;;;;;;;6.58;81.04;94329.94;5017039;28;20668;-78
2024/03/09 03:36:13;;;;;;;3.30;2.20;;;;;;;6.50;82.30;94325.53;5018179;28;20222;-78
2024/03/09 03:38:41;;;;;;;3.47;2.50;;;;;;;6.44;82.48;94318.41;5008262;28;20636;-79
2024/03/09 03:41:07;;;;;;;3.57;1.97;;;;;;;6.39;83.14;94311.13;5020285;28;20647;-80
2024/03/09 03:43:34;;;;;;;2.20;1.80;;;;;;;6.42;83.53;94302.28;5016702;28;20266;-80
2024/03/09 03:46:00;;;;;;;1.97;1.50;;;;;;;6.45;83.38;94297.63;5017458;28;20579;-81
2024/03/09 03:48:25;;;;;;;2.60;1.70;;;;;;;6.42;83.90;94294.53;5020777;28;20182;-80
2024/03/09 03:50:51;;;;;;;2.47;1.80;;;;;;;6.35;84.15;94289.19;5019767;28;20194;-79
2024/03/09 03:53:16;;;;;;;2.87;1.70;;;;;;;6.35;84.42;94283.22;5019231;28;20549;-79
2024/03/09 03:55:42;;;;;;;1.97;1.47;;;;;;;6.43;84.55;94280.69;5009235;28;20207;-79
2024/03/09 03:58:08;;;;;;;1.50;0.93;;;;;;;6.42;84.42;94274.72;5022485;28;20178;-80
2024/03/09 04:00:33;;;;;;;2.37;1.10;;;;;;;6.46;84.37;94260.56;5017328;28;20184;-80
2024/03/09 04:02:59;;;;;;;1.30;1.20;;;;;;;6.44;84.27;94244.41;5018221;28;20209;-80
2024/03/09 04:05:29;;;;;;;1.57;1.10;;;;;;;6.53;84.34;94240.09;5013285;28;20203;-80
2024/03/09 04:07:54;;;;;;;1.13;0.83;;;;;;;6.63;83.75;94227.13;5018046;28;20207;-79
2024/03/09 04:10:20;;;;;;;1.20;0.90;;;;;;;6.66;82.76;94225.03;5021127;28;20876;-80
2024/03/09 04:12:46;;;;;;;3.00;1.20;;;;;;;6.79;82.19;94214.25;5012733;28;20195;-79
2024/03/09 04:15:13;;;;;;;0.77;0.77;;;;;;;6.87;81.63;94213.47;5020279;28;20202;-79
2024/03/09 04:17:40;;;;;;;1.53;1.00;;;;;;;6.98;80.70;94215.75;5011322;28;20273;-80
2024/03/09 04:20:06;;;;;;;1.60;1.20;;;;;;;7.05;80.51;94220.13;4999544;28;20195;-79
2024/03/09 04:22:32;;;;;;;1.50;1.30;;;;;;;7.14;79.60;94217.56;5012839;28;20535;-80
2024/03/09 04:25:01;;;;;;;1.30;1.20;;;;;;;7.13;79.32;94211.59;5018062;28;20710;-81
2024/03/09 04:27:31;;;;;;;2.20;1.10;;;;;;;7.05;80.22;94214.16;5019857;28;20203;-80
2024/03/09 04:29:57;;;;;;;3.03;1.30;;;;;;;7.05;79.60;94209.78;5007660;28;20185;-80
2024/03/09 04:32:27;;;;;;;1.10;1.00;;;;;;;7.07;79.58;94213.03;5004661;28;20933;-80
2024/03/09 04:34:55;;;;;;;2.90;1.20;;;;;;;7.05;79.93;94212.38;5019409;28;20194;-81
2024/03/09 04:37:27;;;;;;;1.50;1.20;;;;;;;6.98;79.80;94208.84;5018376;28;20186;-78
2024/03/09 04:39:53;;;;;;;2.10;1.50;;;;;;;6.98;79.94;94211.41;5009150;28;20269;-80
2024/03/09 04:42:19;;;;;;;1.60;1.40;;;;;;;7.02;79.54;94214.47;5005385;28;20206;-78
2024/03/09 04:44:45;;;;;;;1.27;1.17;;;;;;;7.01;79.56;94213.66;5000712;28;20648;-79
2024/03/09 04:47:11;;;;;;;2.63;1.30;;;;;;;6.95;79.90;94209.13;5019622;28;20214;-79
2024/03/09 04:49:37;;;;;;;2.17;1.50;;;;;;;6.96;80.23;94210.75;5017708;28;20684;-79
2024/03/09 04:52:03;;;;;;;2.00;1.73;;;;;;;6.88;80.41;94208.13;5018680;28;20193;-78
2024/03/09 04:54:29;;;;;;;1.67;1.57;;;;;;;6.88;80.49;94209.91;5015375;28;20183;-80
2024/03/09 04:56:54;;;;;;;2.00;1.63;;;;;;;6.82;80.68;94213.94;5011003;28;20237;-80
2024/03/09 04:59:19;;;;;;;2.77;1.83;;;;;;;6.80;80.03;94203.78;5021712;28;20201;-79
2024/03/09 05:01:45;;;;;;;2.13;1.80;;;;;;;6.80;80.07;94206.38;5034685;28;20183;-80
2024/03/09 05:04:13;;;;;;;1.73;1.60;;;;;;;6.86;79.74;94204.91;5034441;28;20186;-79
2024/03/09 05:06:41;;;;;;;3.20;1.90;;;;;;;6.90;79.65;94201.06;5037696;28;20211;-80
2024/03/09 05:09:06;;;;;;;3.30;2.60;;;;;;;6.87;79.34;94206.53;5021455;28;20195;-78
2024/03/09 05:11:32;;;;;;;2.23;1.73;;;;;;;6.88;79.73;94200.41;5036309;28;20683;-79
2024/03/09 05:13:57;;;;;;;3.40;1.70;;;;;;;6.84;79.79;94185.41;5039921;28;20191;-79
2024/03/09 05:16:23;;;;;;;2.73;1.93;;;;;;;6.87;79.08;94185.06;5022249;28;20269;-80
2024/03/09 05:18:49;;;;;;;1.20;1.10;;;;;;;6.91;78.00;94187.19;5023019;28;20263;-80
2024/03/09 05:21:16;;;;;;;2.03;1.40;;;;;;;7.00;76.88;94191.41;5020920;28;20182;-79
2024/03/09 05:23:42;;;;;;;1.97;1.30;;;;;;;7.10;76.42;94186.91;5035801;28;20249;-78
2024/03/09 05:26:10;;;;;;;1.83;1.20;;;;;;;7.14;76.78;94194.31;5037171;28;20672;-79
2024/03/09 05:28:36;;;;;;;3.40;1.70;;;;;;;6.98;77.93;94193.34;5027665;28;20225;-79
2024/03/09 05:31:02;;;;;;;3.23;1.50;;;;;;;7.04;77.93;94192.69;5031985;28;20195;-79
2024/03/09 05:33:28;;;;;;;1.30;1.20;;;;;;;7.10;77.53;94202.38;5033491;28;20210;-80
2024/03/09 05:35:53;;;;;;;1.93;1.50;;;;;;;6.79;80.18;94191.03;5034135;28;20214;-80
2024/03/09 05:38:20;;;;;;;2.73;2.10;;;;;;;6.67;80.34;94205.19;5021762;28;20756;-81
2024/03/09 05:40:45;;;;;;;5.27;2.80;;;;;;;6.53;81.46;94199.66;5020086;28;20645;-79
2024/03/09 05:43:11;;;;;;;5.97;4.03;;;;;;;6.38;81.65;94198.66;5022803;28;20246;-79
2024/03/09 05:45:37;;;;;;;7.77;4.10;;;;;;;6.23;81.98;94202.75;5001552;28;20199;-80
2024/03/09 05:48:03;;;;;;;7.20;4.73;;;;;;;6.18;82.45;94203.22;5007537;28;20253;-81
2024/03/09 05:50:28;;;;;;;8.97;5.27;;;;;;;6.01;82.87;94192.97;5020694;28;20230;-80
2024/03/09 05:52:58;;;;;;;7.17;4.70;;;;;;;5.98;82.98;94188.94;5018839;28;20217;-81
2024/03/09 05:55:24;;;;;;;6.83;4.73;;;;;;;6.04;83.03;94193.47;5018436;28;20203;-80
2024/03/09 05:57:50;;;;;;;6.87;5.63;;;;;;;5.89;83.63;94192.38;5019241;28;20183;-81
2024/03/09 06:00:18;;;;;;;9.23;6.10;;;;;;;5.76;83.50;94200.53;5008309;28;20205;-80
2024/03/09 06:02:44;;;;;;;8.40;6.50;;;;;;;5.87;83.67;94208.00;5026817;28;20190;-80
2024/03/09 06:05:10;;;;;;;8.80;5.87;;;;;;;5.80;83.66;94211.31;5018244;28;20214;-80
2024/03/09 06:07:39;;;;;;;10.83;6.57;;;;;;;5.78;83.33;94213.25;5006070;28;20230;-81
2024/03/09 06:10:07;;;;;;;7.90;6.07;;;;;;;5.84;83.27;94207.50;5021589;28;20178;-81
2024/03/09 06:12:38;;;;;;;8.57;6.80;;;;;;;5.80;83.22;94213.91;5021902;28;20236;-80
2024/03/09 06:15:04;;;;;;;9.60;5.90;;;;;;;5.68;83.70;94218.50;5020510;28;20336;-80
2024/03/09 06:17:29;;;;;;;10.83;7.30;;;;;;;5.68;84.33;94215.94;5006353;28;20183;-81
2024/03/09 06:19:55;;;;;;;9.70;7.07;;;;;;;5.54;84.86;94227.56;5017883;28;20187;-81
2024/03/09 06:22:20;;;;;;;10.57;6.53;;;;;;;5.67;84.18;94234.91;5022643;28;20895;-80
2024/03/09 06:24:46;;;;;;;9.83;6.70;;;;;;;5.75;83.58;94229.03;5021204;28;20686;-80
2024/03/09 06:27:13;;;;;;;8.40;6.00;;;;;;;5.80;83.38;94221.63;5021937;28;20233;-81
2024/03/09 06:29:40;;;;;;;8.70;6.60;;;;;;;5.44;85.75;94228.59;5015824;28;20198;-81
2024/03/09 06:32:06;;;;;;;12.00;7.53;;;;;;;5.65;84.52;94219.63;5020842;28;20202;-81
2024/03/09 06:34:31;;;;;;;9.33;6.47;;;;;;;5.71;84.16;94230.25;5018580;28;20195;-81
2024/03/09 06:36:57;;;;;;;11.07;7.17;;;;;;;5.72;84.09;94224.97;5015771;28;20203;-81
2024/03/09 06:39:25;;;;;;;10.43;7.03;;;;;;;5.76;84.02;94238.38;5011438;28;20190;-81
2024/03/09 06:41:52;;;;;;;10.63;7.70;;;;;;;5.63;84.34;94239.53;5010941;28;20221;-81
2024/03/09 06:44:18;;;;;;;13.43;8.60;;;;;;;5.72;83.92;94242.19;5006480;28;20193;-81
2024/03/09 06:46:43;;;;;;;12.63;9.43;;;;;;;5.68;83.78;94239.91;5013446;28;20206;-81
2024/03/09 06:49:09;;;;;;;17.30;10.37;;;;;;;5.43;83.96;94234.72;5021456;28;20189;-81
2024/03/09 06:51:34;;;;;;;15.57;10.70;;;;;;;5.56;82.63;94237.72;5019806;28;20654;-80
2024/03/09 06:53:59;;;;;;;18.93;11.90;;;;;;;5.52;82.93;94244.13;5005061;28;20186;-81
2024/03/09 06:56:26;;;;;;;17.33;11.67;;;;;;;5.64;81.98;94242.91;5023769;28;20210;-81
2024/03/09 06:58:53;;;;;;;19.67;12.33;;;;;;;5.61;81.81;94241.47;5004069;28;20211;-81
2024/03/09 07:01:21;;;;;;;18.43;12.03;;;;;;;5.68;80.87;94246.84;5019274;28;20598;-81
2024/03/09 07:03:46;;;;;;;19.57;11.70;;;;;;;5.49;81.38;94247.81;5008793;28;20206;-80
2024/03/09 07:06:12;;;;;;;19.50;12.40;;;;;;;5.56;80.87;94246.25;5023987;28;20288;-80
2024/03/09 07:08:38;;;;;;;25.27;14.57;;;;;;;5.58;80.38;94243.53;5026719;28;20205;-81
2024/03/09 07:11:04;;;;;;;20.67;12.97;;;;;;;5.61;79.73;94240.66;5016837;28;20176;-80
2024/03/09 07:13:29;;;;;;;17.53;12.20;;;;;;;5.68;79.71;94247.63;5022380;28;20185;-80
2024/03/09 07:15:55;;;;;;;20.40;13.37;;;;;;;5.74;78.98;94246.22;5018948;28;20217;-81
2024/03/09 07:18:21;;;;;;;17.60;12.30;;;;;;;5.83;78.66;94242.78;5015796;28;20664;-81
2024/03/09 07:20:47;;;;;;;18.97;12.87;;;;;;;5.96;78.26;94235.47;5020568;28;20194;-82
2024/03/09 07:23:13;;;;;;;21.90;13.40;;;;;;;5.76;78.79;94241.75;5019331;28;20182;-82
2024/03/09 07:25:38;;;;;;;19.63;12.83;;;;;;;5.71;78.88;94243.13;5024788;28;20202;-83
2024/03/09 07:28:04;;;;;;;21.03;13.40;;;;;;;5.86;78.28;94239.06;5024858;28;20676;-83
2024/03/09 07:30:32;;;;;;;21.40;14.37;;;;;;;6.01;77.49;94239.34;5023805;28;20565;-82
2024/03/09 07:32:57;;;;;;;22.70;12.90;;;;;;;6.03;77.32;94233.09;5009297;28;20205;-81
2024/03/09 07:35:27;;;;;;;20.40;12.60;;;;;;;6.06;77.54;94231.97;5024882;28;20199;-80
2024/03/09 07:37:53;;;;;;;19.63;13.33;;;;;;;6.02;77.37;94230.69;5018748;28;20187;-81
2024/03/09 07:40:24;;;;;;;23.03;12.97;;;;;;;6.19;76.99;94232.38;5012099;28;20261;-81
2024/03/09 07:42:50;;;;;;;18.77;12.50;;;;;;;6.28;76.97;94235.81;5023126;28;20190;-79
2024/03/09 07:45:16;;;;;;;20.00;12.90;;;;;;;6.35;76.83;94229.88;5004877;28;20242;-80
2024/03/09 07:47:44;;;;;;;17.17;11.60;;;;;;;6.42;77.08;94228.31;5014559;28;20214;-79
2024/03/09 07:50:16;;;;;;;23.63;12.30;;;;;;;6.56;76.48;94234.66;5011520;28;20194;-81
2024/03/09 07:52:43;;;;;;;20.10;12.73;;;;;;;6.66;75.99;94237.13;5015978;28;20577;-80
2024/03/09 07:55:09;;;;;;;19.20;11.83;;;;;;;6.86;75.50;94232.50;5019421;28;20650;-80
2024/03/09 07:57:34;;;;;;;17.60;11.57;;;;;;;6.78;75.83;94239.25;5007909;28;20207;-81
2024/03/09 07:59:59;;;;;;;16.57;11.40;;;;;;;6.87;75.23;94239.28;5004244;28;20262;-78
2024/03/09 08:02:25;;;;;;;14.87;11.23;;;;;;;7.00;74.90;94231.91;5020758;28;20631;-81
2024/03/09 08:04:51;;;;;;;15.40;10.57;;;;;;;7.14;73.83;94231.25;5018487;28;20246;-81
2024/03/09 08:07:17;;;;;;;16.60;10.57;;;;;;;7.25;73.77;94236.16;5022968;28;20693;-80
2024/03/09 08:09:43;;;;;;;15.87;11.23;;;;;;;7.29;73.72;94231.47;5014606;28;20532;-81
2024/03/09 08:12:08;;;;;;;18.03;10.43;;;;;;;7.45;72.99;94239.22;5020000;28;20178;-80
2024/03/09 08:14:33;;;;;;;14.30;9.80;;;;;;;7.64;72.73;94243.28;5020248;28;20554;-81
2024/03/09 08:17:00;;;;;;;14.13;9.93;;;;;;;7.58;72.97;94247.28;5024601;28;20607;-80
2024/03/09 08:19:25;;;;;;;15.57;9.13;;;;;;;7.71;72.05;94246.84;5021669;28;20182;-81
2024/03/09 08:21:51;;;;;;;15.37;10.70;;;;;;;7.65;72.51;94252.63;5026217;28;20679;-80
2024/03/09 08:24:16;;;;;;;14.90;10.27;;;;;;;7.71;71.58;94251.19;5032232;28;20270;-80
2024/03/09 08:26:45;;;;;;;16.77;11.33;;;;;;;7.56;71.86;94246.66;5009374;28;20217;-81
2024/03/09 08:29:14;;;;;;;15.50;10.37;;;;;;;8.07;70.99;94244.72;5023145;28;20752;-80
2024/03/09 08:31:40;;;;;;;19.07;11.27;;;;;;;8.01;71.13;94252.31;5015627;28;20186;-80
2024/03/09 08:34:06;;;;;;;16.33;9.27;;;;;;;8.11;70.67;94252.94;5015983;28;20195;-81
2024/03/09 08:36:34;;;;;;;12.33;9.03;;;;;;;8.12;69.93;94257.94;5017669;28;20787;-81
2024/03/09 08:38:59;;;;;;;12.50;9.00;;;;;;;8.27;69.54;94250.31;5012522;28;20187;-80
2024/03/09 08:41:27;;;;;;;13.03;9.53;;;;;;;8.34;69.64;94250.47;5015876;28;20376;-81
2024/03/09 08:43:55;;;;;;;13.27;8.23;;;;;;;8.32;69.24;94249.84;5004694;28;20191;-80
2024/03/09 08:46:21;;;;;;;12.90;8.33;;;;;;;8.53;68.77;94250.13;5018347;28;20244;-80
2024/03/09 08:48:46;;;;;;;12.60;8.17;;;;;;;8.75;68.58;94251.19;5021475;28;20194;-81
2024/03/09 08:51:11;;;;;;;13.17;8.73;;;;;;;8.87;67.99;94249.03;5010311;28;20722;-81
2024/03/09 08:53:38;;;;;;;15.20;8.33;;;;;;;8.80;67.75;94254.88;5004547;28;20194;-80
2024/03/09 08:56:04;;;;;;;12.57;8.23;;;;;;;9.07;67.00;94245.84;5008236;28;20260;-80
2024/03/09 08:58:34;;;;;;;11.03;8.07;;;;;;;9.20;66.22;94247.09;5024066;28;20182;-80
2024/03/09 09:01:00;;;;;;;14.27;8.00;;;;;;;9.25;65.72;94237.00;5022938;28;20186;-81
2024/03/09 09:03:25;;;;;;;9.87;7.33;;;;;;;9.07;65.50;94239.88;5021854;28;20189;-80
2024/03/09 09:05:50;;;;;;;13.10;8.40;;;;;;;9.32;65.24;94236.16;5023036;28;20199;-82
2024/03/09 09:08:24;;;;;;;10.27;7.63;;;;;;;9.40;64.87;94237.09;5024895;28;20207;-83
2024/03/09 09:10:51;;;;;;;12.60;9.00;;;;;;;9.42;65.12;94233.34;5025068;28;20605;-83
2024/03/09 09:13:17;;;;;;;11.20;7.93;;;;;;;9.60;65.11;94230.47;5023966;28;20213;-82
2024/03/09 09:15:46;;;;;;;12.53;8.83;;;;;;;9.75;64.24;94227.94;5033353;28;20763;-83
2024/03/09 09:18:14;;;;;;;13.97;8.50;;;;;;;9.79;64.02;94226.59;5012311;28;20190;-83
2024/03/09 09:20:39;;;;;;;11.83;8.20;;;;;;;9.73;64.76;94228.09;5020210;28;20187;-83
2024/03/09 09:23:06;;;;;;;12.00;8.73;;;;;;;9.78;64.49;94225.78;5025829;28;20401;-80
2024/03/09 09:25:32;;;;;;;12.83;8.90;;;;;;;10.05;64.00;94213.22;5022164;28;20297;-81
2024/03/09 09:27:58;;;;;;;12.43;8.90;;;;;;;10.23;64.27;94203.34;5024482;28;20227;-80
2024/03/09 09:30:24;;;;;;;10.90;7.90;;;;;;;10.27;63.99;94209.81;5019842;28;20175;-81
2024/03/09 09:32:50;;;;;;;10.33;7.43;;;;;;;10.13;63.16;94200.19;4993563;28;20687;-79
2024/03/09 09:35:16;;;;;;;12.27;8.67;;;;;;;10.23;63.15;94205.94;5021832;28;20294;-79
2024/03/09 09:37:41;;;;;;;11.90;8.70;;;;;;;10.44;63.35;94195.69;5012176;28;20847;-81
2024/03/09 09:40:07;;;;;;;11.83;8.60;;;;;;;10.55;63.02;94193.59;5022045;28;20205;-82
2024/03/09 09:42:34;;;;;;;12.93;8.80;;;;;;;10.70;63.62;94202.19;5023629;28;20273;-79
2024/03/09 09:45:00;;;;;;;11.03;7.97;;;;;;;10.71;61.69;94191.63;5022141;28;20195;-80
2024/03/09 09:47:25;;;;;;;10.33;7.57;;;;;;;10.94;62.03;94190.69;5022895;28;20285;-80
2024/03/09 09:49:51;;;;;;;7.93;6.50;;;;;;;11.06;61.42;94182.25;5009465;28;20202;-79
2024/03/09 09:52:17;;;;;;;10.37;6.97;;;;;;;10.81;61.10;94182.75;5008480;28;20644;-79
2024/03/09 09:54:43;;;;;;;8.37;6.47;;;;;;;10.92;59.83;94193.47;5019314;28;20274;-81
2024/03/09 09:57:10;;;;;;;10.20;7.20;;;;;;;10.88;59.86;94189.63;5003298;28;20232;-79
2024/03/09 09:59:35;;;;;;;10.70;7.50;;;;;;;10.84;60.18;94193.56;5013233;28;20194;-81
2024/03/09 10:02:03;;;;;;;11.70;7.40;;;;;;;11.07;60.31;94183.84;5024148;28;20194;-79
2024/03/09 10:04:28;;;;;;;8.47;6.67;;;;;;;11.28;60.15;94185.66;5014061;28;20197;-82
2024/03/09 10:07:06;;;;;;;9.47;7.23;;;;;;;11.28;58.72;94185.66;5010619;28;20238;-82
2024/03/09 10:09:32;;;;;;;10.37;7.40;;;;;;;11.11;57.56;94184.28;5019173;28;20274;-81
2024/03/09 10:11:57;;;;;;;8.87;6.13;;;;;;;11.19;58.08;94185.97;5021306;28;20218;-81
2024/03/09 10:14:29;;;;;;;11.43;7.50;;;;;;;11.17;57.44;94187.94;5019627;28;20206;-81
2024/03/09 10:16:55;;;;;;;10.73;7.23;;;;;;;11.51;57.41;94180.28;5023549;28;20730;-81
2024/03/09 10:19:20;;;;;;;10.37;8.03;;;;;;;11.42;56.91;94170.19;5013318;28;20210;-81
2024/03/09 10:21:52;;;;;;;12.10;7.97;;;;;;;11.60;56.45;94173.97;5021825;28;20183;-77
2024/03/09 10:24:18;;;;;;;11.13;7.97;;;;;;;11.46;57.03;94167.03;5023449;28;20198;-80
2024/03/09 10:26:45;;;;;;;12.57;7.63;;;;;;;11.40;56.65;94164.41;5018176;28;20211;-78
2024/03/09 10:29:13;;;;;;;13.03;8.33;;;;;;;11.56;55.73;94151.13;5019712;28;20269;-79
2024/03/09 10:31:42;;;;;;;11.73;8.40;;;;;;;11.48;56.93;94140.84;5025685;28;20179;-80
2024/03/09 10:34:08;;;;;;;11.33;8.23;;;;;;;11.56;56.13;94145.91;5021095;28;20186;-81
2024/03/09 10:36:33;;;;;;;10.93;8.40;;;;;;;11.39;54.23;94150.56;5019065;28;20199;-81
2024/03/09 10:39:00;;;;;;;11.77;8.50;;;;;;;11.80;56.61;94134.34;5009993;28;20187;-82
2024/03/09 10:41:26;;;;;;;13.63;8.40;;;;;;;11.77;55.20;94139.91;5022687;28;20281;-80
2024/03/09 10:43:52;;;;;;;12.13;8.80;;;;;;;11.89;56.03;94128.81;5005134;28;20806;-81
2024/03/09 10:46:25;;;;;;;11.37;8.03;;;;;;;11.98;55.27;94119.06;5020015;28;20234;-81
2024/03/09 10:48:54;;;;;;;11.33;8.70;;;;;;;12.18;54.83;94125.16;5011664;28;20194;-79
2024/03/09 10:51:43;;;;;;;11.80;8.13;;;;;;;12.26;55.19;94126.00;5006452;28;20190;-81
2024/03/09 10:54:35;;;;;;;10.00;7.27;;;;;;;12.11;54.55;94126.94;5020164;28;20241;-80
2024/03/09 10:57:02;;;;;;;12.43;8.33;;;;;;;11.95;54.55;94119.44;5021936;28;20207;-81
2024/03/09 10:59:30;;;;;;;11.67;8.37;;;;;;;11.93;54.60;94123.22;5020397;28;20544;-81
2024/03/09 11:01:55;;;;;;;10.77;7.87;;;;;;;12.19;55.01;94125.97;5020035;28;20459;-81
2024/03/09 11:04:21;;;;;;;9.60;7.57;;;;;;;12.19;54.46;94115.56;5017427;28;20186;-81
2024/03/09 11:06:47;;;;;;;11.60;8.00;;;;;;;12.23;54.03;94110.78;5020008;28;20253;-81
2024/03/09 11:09:15;;;;;;;9.27;6.83;;;;;;;12.30;53.51;94109.03;5009788;28;20175;-81
2024/03/09 11:11:40;;;;;;;8.23;6.37;;;;;;;12.56;53.30;94103.13;5016527;28;20180;-81
2024/03/09 11:14:06;;;;;;;8.73;5.57;;;;;;;12.69;52.76;94111.00;5006878;28;20175;-81
2024/03/09 11:16:31;;;;;;;9.67;5.63;;;;;;;12.86;51.60;94103.63;5012227;28;20228;-81
2024/03/09 11:18:57;;;;;;;7.43;5.77;;;;;;;13.12;51.72;94110.69;5006866;28;20197;-81
2024/03/09 11:21:29;;;;;;;5.37;4.30;;;;;;;13.30;50.20;94109.16;5015961;28;20269;-81
2024/03/09 11:24:06;;;;;;;5.60;4.23;;;;;;;13.55;48.66;94105.97;5007272;28;20543;-82
2024/03/09 11:26:52;;;;;;;7.10;3.77;;;;;;;13.52;47.52;94101.16;5017571;28;20195;-81
2024/03/09 11:29:22;;;;;;;3.97;3.00;;;;;;;13.39;45.31;94099.34;5023086;28;20205;-81